createdAt,value
2022-11-18T00:02:47.577Z,4.20
2022-11-18T00:07:45.687Z,4.30
2022-11-18T00:13:01.206Z,4.20
2022-11-18T00:18:00.605Z,4.30
2022-11-18T00:22:58.628Z,4.30
2022-11-18T00:27:56.719Z,4.10
2022-11-18T00:32:54.784Z,4.10
2022-11-18T00:37:54.176Z,4.00
2022-11-18T00:42:52.413Z,4.00
2022-11-18T00:47:50.505Z,4.00
2022-11-18T00:52:48.819Z,3.90
2022-11-18T00:57:48.218Z,4.00
2022-11-18T01:02:46.230Z,3.90
2022-11-18T01:07:44.414Z,3.90
2022-11-18T01:13:00.012Z,3.80
2022-11-18T01:17:59.451Z,3.80
2022-11-18T01:22:57.576Z,3.90
2022-11-18T01:27:56.413Z,3.80
2022-11-18T01:32:54.480Z,3.90
2022-11-18T01:37:53.923Z,3.70
2022-11-18T01:42:51.959Z,3.70
2022-11-18T01:47:55.237Z,3.80
2022-11-18T01:52:59.540Z,3.80
2022-11-18T01:58:03.816Z,3.70
2022-11-18T02:03:02.865Z,3.50
2022-11-18T02:08:03.795Z,3.50
2022-11-18T02:13:02.463Z,3.40
2022-11-18T02:18:10.492Z,3.30
2022-11-18T02:23:45.074Z,3.20
2022-11-18T02:29:05.673Z,3.20
2022-11-18T02:34:12.906Z,3.30
2022-11-18T02:39:18.582Z,3.30
2022-11-18T02:44:20.098Z,3.20
2022-11-18T02:49:23.611Z,3.00
2022-11-18T02:54:24.452Z,3.00
2022-11-18T02:59:23.945Z,3.10
2022-11-18T03:04:23.611Z,3.10
2022-11-18T03:09:26.266Z,3.00
2022-11-18T03:14:35.030Z,2.90
2022-11-18T03:19:59.078Z,3.10
2022-11-18T03:25:05.211Z,2.90
2022-11-18T03:30:09.222Z,2.90
2022-11-18T03:35:11.496Z,2.90
2022-11-18T03:40:16.298Z,2.80
2022-11-18T03:45:20.542Z,2.90
2022-11-18T03:50:22.654Z,2.90
2022-11-18T03:55:24.646Z,2.90
2022-11-18T04:00:24.732Z,2.90
2022-11-18T04:05:22.915Z,2.80
2022-11-18T04:10:23.752Z,2.80
2022-11-18T04:15:23.421Z,2.70
2022-11-18T04:20:23.109Z,2.70
2022-11-18T04:25:21.145Z,2.70
2022-11-18T04:30:20.000Z,2.60
2022-11-18T04:35:19.599Z,2.60
2022-11-18T04:40:18.186Z,2.60
2022-11-18T04:45:16.247Z,2.60
2022-11-18T04:50:14.344Z,2.60
2022-11-18T04:55:13.742Z,2.60
2022-11-18T05:00:12.910Z,2.70
2022-11-18T05:05:11.146Z,2.60
2022-11-18T05:15:34.688Z,2.30
2022-11-18T05:20:35.145Z,2.30
2022-11-18T05:25:37.215Z,2.20
2022-11-18T05:30:36.614Z,2.20
2022-11-18T05:35:37.654Z,2.20
2022-11-18T05:40:35.669Z,2.40
2022-11-18T05:45:33.694Z,2.40
2022-11-18T05:50:34.568Z,2.30
2022-11-18T05:55:38.416Z,2.40
2022-11-18T06:00:36.813Z,2.50
2022-11-18T06:05:36.380Z,2.50
2022-11-18T06:10:37.772Z,2.50
2022-11-18T06:15:40.663Z,2.50
2022-11-18T06:20:41.520Z,2.40
2022-11-18T06:25:40.978Z,2.30
2022-11-18T06:30:39.147Z,2.20
2022-11-18T06:35:37.240Z,2.10
2022-11-18T06:40:37.552Z,2.10
2022-11-18T06:45:36.733Z,2.20
2022-11-18T06:50:34.794Z,2.30
2022-11-18T06:55:32.853Z,2.30
2022-11-18T07:00:32.343Z,2.30
2022-11-18T07:05:30.457Z,2.20
2022-11-18T07:10:28.542Z,2.10
2022-11-18T07:15:26.616Z,2.10
2022-11-18T07:20:26.029Z,1.90
2022-11-18T07:25:24.068Z,1.90
2022-11-18T07:30:22.275Z,1.70
2022-11-18T07:35:20.356Z,1.60
2022-11-18T07:40:20.029Z,1.70
2022-11-18T07:45:18.190Z,1.70
2022-11-18T07:50:16.744Z,1.90
2022-11-18T07:55:14.850Z,2.00
2022-11-18T08:00:15.485Z,2.00
2022-11-18T08:05:17.974Z,2.00
2022-11-18T08:10:17.202Z,2.00
2022-11-18T08:15:16.713Z,2.00
2022-11-18T08:20:14.972Z,2.10
2022-11-18T08:25:13.132Z,2.20
2022-11-18T08:30:12.496Z,2.40
2022-11-18T08:35:12.051Z,2.40
2022-11-18T08:40:11.080Z,2.40
2022-11-18T08:45:09.756Z,2.40
2022-11-18T08:50:09.890Z,2.30
2022-11-18T08:55:09.745Z,2.30
2022-11-18T09:00:09.265Z,2.20
2022-11-18T09:05:08.004Z,2.10
2022-11-18T09:10:07.007Z,2.30
2022-11-18T09:15:15.296Z,2.20
2022-11-18T09:20:13.525Z,2.10
2022-11-18T09:25:12.046Z,1.90
2022-11-18T09:30:12.330Z,1.80
2022-11-18T09:35:10.387Z,1.60
2022-11-18T09:40:17.395Z,1.60
2022-11-18T09:45:25.265Z,1.70
2022-11-18T09:50:48.506Z,1.70
2022-11-18T09:55:54.306Z,1.70
2022-11-18T10:00:56.435Z,1.80
2022-11-18T10:05:59.386Z,1.80
2022-11-18T10:11:06.284Z,1.90
2022-11-18T10:16:23.647Z,1.90
2022-11-18T10:21:33.898Z,1.90
2022-11-18T10:26:38.008Z,1.90
2022-11-18T10:31:39.496Z,1.90
2022-11-18T10:36:37.970Z,1.80
2022-11-18T10:41:47.294Z,1.90
2022-11-18T10:46:46.680Z,1.90
2022-11-18T10:51:46.591Z,1.90
2022-11-18T10:56:57.468Z,2.10
2022-11-18T11:02:08.337Z,2.20
2022-11-18T11:07:17.684Z,2.30
2022-11-18T11:12:18.781Z,2.50
2022-11-18T11:17:22.098Z,2.30
2022-11-18T11:22:20.438Z,2.30
2022-11-18T11:33:16.517Z,2.30
2022-11-18T11:38:23.996Z,2.20
2022-11-18T11:43:35.540Z,2.10
2022-11-18T11:48:47.968Z,2.00
2022-11-18T11:54:01.177Z,2.00
2022-11-18T11:59:13.763Z,2.00
2022-11-18T12:04:25.619Z,2.00
2022-11-18T12:09:38.172Z,2.20
2022-11-18T12:14:47.188Z,2.30
2022-11-18T12:19:46.566Z,2.40
2022-11-18T12:24:44.666Z,2.40
2022-11-18T12:29:54.756Z,2.30
2022-11-18T12:35:01.665Z,2.20
2022-11-18T12:40:01.009Z,2.10
2022-11-18T12:45:37.824Z,2.20
2022-11-18T12:50:50.928Z,2.30
2022-11-18T12:55:49.231Z,2.20
2022-11-18T13:00:53.188Z,2.30
2022-11-18T13:06:01.058Z,2.50
2022-11-18T13:11:23.779Z,2.60
2022-11-18T13:16:42.216Z,2.70
2022-11-18T13:21:59.209Z,2.70
2022-11-18T13:27:00.467Z,2.70
2022-11-18T13:32:17.040Z,2.60
2022-11-18T13:37:20.447Z,2.50
2022-11-18T13:42:21.336Z,2.40
2022-11-18T13:47:27.397Z,2.40
2022-11-18T13:52:31.479Z,2.50
2022-11-18T13:57:31.241Z,2.40
2022-11-18T14:02:29.598Z,2.40
2022-11-18T14:07:31.902Z,2.60
2022-11-18T14:12:32.488Z,2.50
2022-11-18T14:17:30.669Z,2.30
2022-11-18T14:22:31.891Z,2.20
2022-11-18T14:27:38.887Z,2.20
2022-11-18T14:32:36.956Z,2.10
2022-11-18T14:37:36.408Z,2.30
2022-11-18T14:42:34.502Z,2.40
2022-11-18T14:47:32.596Z,2.40
2022-11-18T14:52:30.618Z,2.40
2022-11-18T14:57:30.033Z,2.30
2022-11-18T15:02:28.108Z,2.20
2022-11-18T15:07:26.256Z,2.10
2022-11-18T15:12:24.320Z,2.00
2022-11-18T15:17:23.728Z,2.00
2022-11-18T15:22:21.771Z,1.90
2022-11-18T15:27:19.823Z,1.90
2022-11-18T15:32:17.895Z,1.90
2022-11-18T15:37:17.846Z,2.00
2022-11-18T15:42:20.441Z,2.10
2022-11-18T15:47:21.310Z,2.00
2022-11-18T15:52:20.715Z,1.90
2022-11-18T15:57:18.729Z,1.90
2022-11-18T16:02:16.781Z,1.90
2022-11-18T16:07:14.933Z,1.90
2022-11-18T16:12:34.107Z,1.90
2022-11-18T16:17:32.174Z,1.90
2022-11-18T16:22:30.227Z,1.80
2022-11-18T16:27:31.790Z,1.80
2022-11-18T16:32:30.005Z,1.80
2022-11-18T16:37:28.096Z,1.80
2022-11-18T16:42:26.140Z,1.70
2022-11-18T16:47:25.561Z,1.70
2022-11-18T16:52:23.817Z,1.70
2022-11-18T16:57:22.607Z,1.70
2022-11-18T17:02:20.782Z,1.70
2022-11-18T17:07:20.577Z,1.60
2022-11-18T17:12:18.689Z,1.60
2022-11-18T17:17:16.732Z,1.60
2022-11-18T17:22:14.742Z,1.60
2022-11-18T17:27:14.142Z,1.50
2022-11-18T17:32:12.178Z,1.50
2022-11-18T17:37:10.502Z,1.50
2022-11-18T17:42:22.421Z,1.50
2022-11-18T17:47:22.040Z,1.50
2022-11-18T17:52:20.296Z,1.50
2022-11-18T17:57:18.334Z,1.50
2022-11-18T18:02:16.467Z,1.50
2022-11-18T18:07:15.930Z,1.60
2022-11-18T18:12:31.299Z,1.50
2022-11-18T18:17:29.359Z,1.50
2022-11-18T18:22:28.746Z,1.50
2022-11-18T18:27:26.797Z,1.40
2022-11-18T18:32:25.000Z,1.50
2022-11-18T18:37:23.038Z,1.30
2022-11-18T18:42:22.808Z,1.30
2022-11-18T18:47:20.981Z,1.30
2022-11-18T18:52:19.036Z,1.30
2022-11-18T18:57:17.113Z,1.30
2022-11-18T19:02:16.564Z,1.30
2022-11-18T19:07:16.603Z,1.30
2022-11-18T19:12:31.963Z,1.30
2022-11-18T19:17:31.445Z,1.30
2022-11-18T19:22:31.223Z,1.30
2022-11-18T19:27:29.780Z,1.30
2022-11-18T19:32:27.922Z,1.20
2022-11-18T19:37:27.366Z,1.20
2022-11-18T19:42:25.410Z,1.20
2022-11-18T19:47:24.050Z,1.20
2022-11-18T19:52:22.094Z,1.20
2022-11-18T19:57:21.959Z,1.20
2022-11-18T20:02:20.104Z,1.20
2022-11-18T20:07:18.256Z,1.20
2022-11-18T20:12:16.353Z,1.20
2022-11-18T20:17:15.802Z,1.20
2022-11-18T20:22:13.841Z,1.20
2022-11-18T20:27:13.372Z,1.20
2022-11-18T20:32:11.431Z,1.20
2022-11-18T20:37:12.737Z,1.20
2022-11-18T20:42:28.126Z,1.10
2022-11-18T20:47:26.155Z,1.10
2022-11-18T20:52:25.602Z,1.10
2022-11-18T20:57:23.714Z,1.10
2022-11-18T21:02:21.798Z,1.10
2022-11-18T21:07:19.893Z,1.10
2022-11-18T21:12:19.333Z,1.10
2022-11-18T21:17:17.517Z,1.10
2022-11-18T21:22:15.586Z,1.00
2022-11-18T21:27:15.382Z,1.00
2022-11-18T21:32:14.777Z,1.00
2022-11-18T21:37:12.814Z,0.90
2022-11-18T21:42:10.896Z,0.90
2022-11-18T21:47:08.988Z,0.90
2022-11-18T21:52:08.410Z,0.90
2022-11-18T21:57:07.078Z,0.80
2022-11-18T22:02:05.159Z,0.80
2022-11-18T22:07:03.268Z,0.80
2022-11-18T22:12:02.771Z,0.70
2022-11-18T22:17:00.854Z,0.70
2022-11-18T22:21:59.373Z,0.70
2022-11-18T22:26:58.193Z,0.70
2022-11-18T22:31:57.702Z,0.70
2022-11-18T22:36:55.746Z,0.70
2022-11-18T22:42:11.060Z,0.60
2022-11-18T22:47:10.464Z,0.60
2022-11-18T22:52:08.549Z,0.60
2022-11-18T22:57:06.856Z,0.50
2022-11-18T23:02:05.124Z,0.50
2022-11-18T23:07:04.785Z,0.50
2022-11-18T23:12:20.418Z,0.50
2022-11-18T23:17:18.451Z,0.50
2022-11-18T23:22:18.043Z,0.50
2022-11-18T23:27:16.078Z,0.40
2022-11-18T23:32:14.155Z,0.40
2022-11-18T23:37:12.184Z,0.40
2022-11-18T23:42:11.599Z,0.30
2022-11-18T23:47:09.659Z,0.30
2022-11-18T23:52:07.708Z,0.30
2022-11-18T23:57:05.822Z,0.30
